Time;durP1;ratioP1;P1;durP2;ratioP2;P2;SDS_P1;SDS_P2;PMS_P1;PMS_P2;Temp;Humidity;BMP_temperature;BMP_pressure;BME280_temperature;BME280_humidity;BME280_pressure;Samples;Min_cycle;Max_cycle;Signal;HPM_P1;HPM_P2
2021/11/12 00:13:18;;;;;;;39.67;19.45;;;;;;;-0.94;74.38;99908.73;1682047;84;20933;-73
2021/11/12 00:15:47;;;;;;;41.65;17.48;;;;;;;-1.00;74.79;99907.78;1727187;81;20904;-73
2021/11/12 00:18:09;;;;;;;42.73;19.95;;;;;;;-1.04;75.13;99903.08;1687195;81;20983;-73
2021/11/12 00:20:36;;;;;;;37.35;17.80;;;;;;;-1.11;75.36;99901.84;1676600;83;20948;-74
2021/11/12 00:23:03;;;;;;;42.73;18.62;;;;;;;-1.12;75.54;99904.76;1705347;81;21100;-74
2021/11/12 00:25:29;;;;;;;53.30;19.92;;;;;;;-1.18;75.71;99902.49;1693796;81;20901;-74
2021/11/12 00:27:57;;;;;;;37.83;18.17;;;;;;;-1.22;75.90;99897.80;1721272;79;20931;-74
2021/11/12 00:30:36;;;;;;;41.00;18.48;;;;;;;-1.25;76.17;99890.99;1689795;82;20982;-73
2021/11/12 00:35:36;;;;;;;43.95;18.57;;;;;;;-1.31;76.78;99876.27;1712264;81;21150;-74
2021/11/12 00:38:03;;;;;;;47.40;22.13;;;;;;;-1.31;77.03;99886.52;1714045;81;21045;-73
2021/11/12 00:43:10;;;;;;;41.00;19.23;;;;;;;-1.17;78.78;99887.15;1655733;85;21495;-75
2021/11/12 00:45:40;;;;;;;48.13;21.77;;;;;;;-1.04;78.75;99888.27;1728966;81;21011;-74
2021/11/12 00:55:39;;;;;;;72.42;28.95;;;;;;;-0.65;79.18;99869.79;1721450;81;21375;-74
2021/11/12 00:58:05;;;;;;;59.27;26.57;;;;;;;-0.54;79.56;99870.28;1727426;81;21017;-75
2021/11/12 01:00:32;;;;;;;82.47;32.88;;;;;;;-0.39;80.16;99869.28;1698306;81;21082;-72
2021/11/12 01:02:59;;;;;;;72.90;30.75;;;;;;;-0.25;79.85;99872.02;1716941;81;21470;-74
2021/11/12 01:05:26;;;;;;;80.22;32.65;;;;;;;-0.16;79.63;99862.50;1700056;82;20912;-73
2021/11/12 01:07:53;;;;;;;55.28;23.85;;;;;;;-0.08;79.62;99858.61;1691751;82;20908;-74
2021/11/12 01:10:19;;;;;;;52.88;23.65;;;;;;;0.00;79.60;99854.98;1711142;81;20905;-75
2021/11/12 01:12:46;;;;;;;37.58;18.75;;;;;;;0.11;79.87;99856.01;1708418;83;21178;-74
2021/11/12 01:15:15;;;;;;;34.08;17.73;;;;;;;0.26;80.37;99855.48;1718997;81;20959;-74
2021/11/12 01:17:42;;;;;;;41.40;18.42;;;;;;;0.41;80.07;99849.03;1717860;81;21679;-75
2021/11/12 01:20:11;;;;;;;37.40;19.07;;;;;;;0.56;79.96;99857.41;1738559;81;20964;-72
2021/11/12 01:22:38;;;;;;;35.60;18.05;;;;;;;0.69;79.73;99852.73;1709827;81;21003;-73
2021/11/12 01:25:10;;;;;;;34.65;16.80;;;;;;;0.81;79.43;99855.66;1719743;82;21014;-74
2021/11/12 01:27:39;;;;;;;38.35;18.32;;;;;;;0.92;79.13;99851.25;1719036;82;20903;-74
2021/11/12 01:30:11;;;;;;;32.17;16.93;;;;;;;0.99;78.63;99845.97;1710797;82;20952;-75
2021/11/12 01:32:37;;;;;;;40.33;19.37;;;;;;;1.02;78.26;99841.95;1705511;82;20907;-74
2021/11/12 01:35:05;;;;;;;38.05;17.25;;;;;;;1.02;78.05;99833.84;1717586;81;20930;-74
2021/11/12 01:37:32;;;;;;;36.88;17.75;;;;;;;1.05;77.96;99840.65;1717682;81;21079;-75
2021/11/12 01:40:01;;;;;;;33.45;16.95;;;;;;;1.07;77.86;99838.52;1707708;81;21076;-73
2021/11/12 01:43:05;;;;;;;33.58;17.35;;;;;;;1.10;77.69;99840.20;1697812;81;21011;-74
2021/11/12 01:45:48;;;;;;;42.83;17.75;;;;;;;1.12;77.43;99837.25;1726740;81;20915;-75
2021/11/12 01:51:06;;;;;;;41.18;20.35;;;;;;;1.07;77.19;99838.52;1725455;81;21043;-74
2021/11/12 01:53:39;;;;;;;41.02;18.60;;;;;;;1.05;77.16;99836.06;1702904;82;21438;-78
2021/11/12 02:01:36;;;;;;;35.83;18.92;;;;;;;0.99;77.25;99827.58;1729211;82;20975;-77
2021/11/12 02:04:03;;;;;;;40.50;19.02;;;;;;;0.96;77.27;99837.00;1718696;81;21521;-77
2021/11/12 02:06:31;;;;;;;39.88;20.02;;;;;;;0.93;77.33;99829.38;1664796;85;20919;-76
2021/11/12 02:08:58;;;;;;;42.83;20.17;;;;;;;0.91;77.49;99823.94;1659002;85;20999;-76
2021/11/12 02:11:25;;;;;;;38.67;18.32;;;;;;;0.89;77.57;99824.71;1699413;84;21019;-76
2021/11/12 02:13:52;;;;;;;41.28;19.48;;;;;;;0.87;77.70;99826.84;1697125;84;20930;-74
2021/11/12 02:16:30;;;;;;;40.43;18.30;;;;;;;0.85;77.89;99828.44;1697641;84;21787;-74
2021/11/12 02:18:52;;;;;;;41.63;20.37;;;;;;;0.86;77.94;99821.15;1728189;82;20895;-75
2021/11/12 02:23:51;;;;;;;49.00;20.95;;;;;;;0.84;78.10;99817.87;1697518;84;20943;-74
2021/11/12 02:26:22;;;;;;;40.55;19.30;;;;;;;0.83;78.05;99812.17;1666772;84;21493;-75
2021/11/12 02:28:53;;;;;;;46.68;19.50;;;;;;;0.81;78.23;99817.83;1715205;83;21144;-73
2021/11/12 02:31:18;;;;;;;39.92;20.88;;;;;;;0.80;78.28;99814.02;1714703;83;21030;-75
2021/11/12 02:33:45;;;;;;;39.92;20.40;;;;;;;0.79;78.53;99812.38;1722365;82;20878;-75
2021/11/12 02:36:15;;;;;;;38.98;19.17;;;;;;;0.78;78.79;99812.09;1711619;82;20976;-75
2021/11/12 02:38:45;;;;;;;39.90;18.48;;;;;;;0.78;78.87;99808.04;1718403;82;20861;-76
2021/11/12 02:41:12;;;;;;;39.73;18.60;;;;;;;0.77;78.85;99805.05;1712666;81;21094;-76
2021/11/12 02:43:40;;;;;;;38.78;19.17;;;;;;;0.75;78.88;99803.13;1724285;83;20904;-76
2021/11/12 02:46:09;;;;;;;36.75;19.05;;;;;;;0.75;79.05;99798.54;1724699;83;20883;-76
2021/11/12 02:48:39;;;;;;;35.28;17.17;;;;;;;0.75;79.14;99806.64;1719256;82;20881;-76
2021/11/12 02:51:09;;;;;;;38.63;19.62;;;;;;;0.76;79.46;99804.77;1711759;83;20872;-76
2021/11/12 02:53:38;;;;;;;43.83;19.53;;;;;;;0.74;79.47;99805.01;1722049;81;20935;-75
2021/11/12 02:56:12;;;;;;;41.20;19.85;;;;;;;0.75;79.38;99808.53;1711678;82;20892;-76
2021/11/12 02:58:38;;;;;;;44.80;20.23;;;;;;;0.74;79.45;99799.60;1716207;82;20914;-78
2021/11/12 03:01:06;;;;;;;39.30;18.20;;;;;;;0.73;79.55;99799.31;1717340;82;21445;-76
2021/11/12 03:03:32;;;;;;;43.87;18.87;;;;;;;0.73;79.70;99807.95;1721224;83;20919;-73
2021/11/12 03:05:59;;;;;;;37.60;18.52;;;;;;;0.72;79.78;99808.48;1716137;82;21090;-75
2021/11/12 03:08:27;;;;;;;38.30;18.95;;;;;;;0.70;79.71;99805.21;1716301;83;20927;-76
2021/11/12 03:10:55;;;;;;;39.45;19.07;;;;;;;0.68;79.79;99803.81;1722265;82;21450;-76
2021/11/12 03:13:24;;;;;;;43.23;20.37;;;;;;;0.64;79.99;99802.95;1717629;82;20915;-77
2021/11/12 03:15:52;;;;;;;38.67;20.23;;;;;;;0.61;79.95;99803.44;1710045;82;21564;-77
2021/11/12 03:18:19;;;;;;;44.35;20.25;;;;;;;0.58;79.88;99802.58;1711860;82;21434;-77
2021/11/12 03:20:45;;;;;;;40.03;20.05;;;;;;;0.54;79.99;99803.34;1721979;82;20911;-75
2021/11/12 03:23:18;;;;;;;41.20;19.92;;;;;;;0.50;80.11;99798.95;1698645;81;21456;-75
2021/11/12 03:25:52;;;;;;;45.17;19.37;;;;;;;0.46;80.13;99801.85;1693986;83;20950;-74
2021/11/12 04:00:38;;;;;;;51.88;21.70;;;;;;;0.06;82.51;99795.70;1690450;84;20912;-78
2021/11/12 04:06:04;;;;;;;40.75;19.37;;;;;;;0.05;82.87;99802.16;1695895;84;21482;-76
2021/11/12 05:09:47;;;;;;;54.53;23.05;;;;;;;0.20;87.86;99817.30;1719225;82;20864;-75
2021/11/12 05:45:46;;;;;;;46.25;21.30;;;;;;;0.15;88.68;99815.32;1701811;82;21118;-74
2021/11/12 05:50:40;;;;;;;47.95;21.60;;;;;;;0.15;88.83;99822.07;1709330;82;22168;-74
2021/11/12 05:55:47;;;;;;;44.88;22.85;;;;;;;0.21;89.41;99829.73;1695580;81;20911;-78
2021/11/12 05:58:14;;;;;;;51.37;24.85;;;;;;;0.28;89.70;99836.64;1726191;81;21181;-77
2021/11/12 06:00:41;;;;;;;45.23;22.45;;;;;;;0.30;89.38;99836.39;1715531;81;20964;-74
2021/11/12 06:03:07;;;;;;;55.75;26.02;;;;;;;0.32;89.33;99839.14;1706845;82;20986;-74
2021/11/12 06:05:34;;;;;;;61.88;28.87;;;;;;;0.35;89.29;99849.99;1729134;81;21520;-74
2021/11/12 06:08:01;;;;;;;63.25;27.13;;;;;;;0.39;89.19;99844.40;1707443;81;21509;-74
2021/11/12 06:10:27;;;;;;;61.63;28.60;;;;;;;0.41;89.24;99845.51;1727565;82;21743;-74
2021/11/12 06:12:54;;;;;;;61.68;28.00;;;;;;;0.44;89.23;99842.33;1721199;82;21541;-77
2021/11/12 06:15:22;;;;;;;72.05;30.30;;;;;;;0.47;89.34;99837.79;1699295;84;21455;-73
2021/11/12 06:17:49;;;;;;;64.55;30.02;;;;;;;0.52;89.41;99838.70;1699106;84;21022;-75
2021/11/12 06:20:16;;;;;;;61.55;27.22;;;;;;;0.57;89.51;99845.55;1698756;84;20948;-72
2021/11/12 06:22:43;;;;;;;50.92;24.45;;;;;;;0.64;89.46;99839.42;1686135;84;21941;-72
2021/11/12 06:25:10;;;;;;;54.85;26.62;;;;;;;0.77;89.62;99839.65;1695384;84;20963;-71
2021/11/12 06:27:36;;;;;;;64.42;28.20;;;;;;;1.06;89.46;99849.05;1689539;84;20955;-74
2021/11/12 06:30:05;;;;;;;65.32;29.07;;;;;;;1.41;88.74;99847.39;1669917;84;21513;-79
2021/11/12 06:32:32;;;;;;;57.53;26.52;;;;;;;1.79;88.21;99848.72;1708644;81;20912;-84
2021/11/12 06:34:59;;;;;;;59.03;28.47;;;;;;;2.28;86.92;99842.83;1691799;84;21122;-79
2021/11/12 06:37:25;;;;;;;49.93;24.77;;;;;;;2.67;84.39;99840.48;1694019;84;20978;-73
2021/11/12 06:39:51;;;;;;;49.13;24.80;;;;;;;2.94;83.35;99848.84;1692381;84;20958;-76
2021/11/12 06:42:19;;;;;;;59.30;26.93;;;;;;;3.25;82.08;99845.84;1696779;84;20892;-84
2021/11/12 06:50:13;;;;;;;47.45;23.62;;;;;;;3.97;79.15;99845.70;1724482;82;20935;-86
2021/11/12 06:52:43;;;;;;;50.03;26.57;;;;;;;4.25;77.36;99846.59;1723589;81;20915;-81
2021/11/12 06:55:11;;;;;;;48.48;24.45;;;;;;;4.49;76.98;99840.15;1724077;82;21043;-79
2021/11/12 06:57:39;;;;;;;47.60;25.32;;;;;;;5.01;74.75;99847.81;1725082;82;20931;-81
2021/11/12 07:00:07;;;;;;;46.75;25.65;;;;;;;5.01;74.75;99847.81;1718243;82;21808;-80
2021/11/12 07:02:35;;;;;;;42.08;22.75;;;;;;;5.23;74.03;99843.70;1722728;82;20939;-73
2021/11/12 07:05:01;;;;;;;48.08;24.30;;;;;;;5.46;72.43;99846.40;1720326;81;20968;-74
2021/11/12 07:07:30;;;;;;;48.83;27.48;;;;;;;5.57;71.23;99846.66;1722905;82;20962;-74
2021/11/12 07:09:56;;;;;;;45.05;24.02;;;;;;;5.57;70.74;99850.73;1723395;82;20923;-79
2021/11/12 07:12:23;;;;;;;54.42;26.90;;;;;;;5.47;70.59;99852.66;1687962;83;21182;-80
2021/11/12 07:14:51;;;;;;;52.03;25.65;;;;;;;5.45;71.58;99846.67;1691713;83;20971;-73
2021/11/12 07:17:17;;;;;;;51.55;27.15;;;;;;;5.64;71.63;99851.81;1692792;84;20994;-75
2021/11/12 07:19:44;;;;;;;51.60;26.95;;;;;;;5.92;70.74;99851.20;1693917;84;20948;-75
2021/11/12 07:22:11;;;;;;;45.88;25.10;;;;;;;6.18;70.01;99845.66;1694922;83;20891;-74
2021/11/12 07:24:38;;;;;;;46.45;26.62;;;;;;;6.39;69.57;99845.80;1697573;84;21177;-82
2021/11/12 07:27:06;;;;;;;44.13;24.43;;;;;;;6.57;69.02;99837.52;1696016;84;20967;-79
2021/11/12 07:29:34;;;;;;;47.78;27.02;;;;;;;6.81;68.41;99834.37;1698333;84;21016;-81
2021/11/12 07:32:01;;;;;;;44.23;25.32;;;;;;;7.01;67.78;99838.02;1699533;84;20927;-81
2021/11/12 07:34:29;;;;;;;45.08;24.02;;;;;;;7.18;67.25;99831.59;1700582;84;20872;-80
2021/11/12 07:37:31;;;;;;;50.50;27.75;;;;;;;7.43;66.05;99834.10;1697060;84;21196;-74
2021/11/12 07:42:22;;;;;;;;;;;;;;;7.70;65.45;99825.33;1699532;84;20971;-76
2021/11/12 07:47:16;;;;;;;48.45;27.48;;;;;;;8.29;64.80;99825.42;1695622;84;20947;-79
2021/11/12 07:49:52;;;;;;;47.27;25.75;;;;;;;8.59;63.32;99825.59;1697786;84;21132;-83
2021/11/12 07:52:21;;;;;;;47.83;27.25;;;;;;;8.78;62.82;99833.22;1690704;84;21137;-73
2021/11/12 07:54:48;;;;;;;47.83;28.47;;;;;;;9.04;62.53;99833.64;1688943;84;20932;-74
2021/11/12 07:57:14;;;;;;;54.98;26.97;;;;;;;9.12;61.51;99832.97;1698652;82;21066;-75
2021/11/12 07:59:42;;;;;;;50.65;28.73;;;;;;;9.20;61.54;99832.28;1691709;82;20960;-75
2021/11/12 08:02:08;;;;;;;46.58;26.40;;;;;;;9.21;60.46;99828.44;1686895;84;21918;-75
2021/11/12 08:04:36;;;;;;;43.28;26.20;;;;;;;9.03;60.76;99834.76;1676576;84;20990;-73
2021/11/12 08:07:04;;;;;;;47.23;28.40;;;;;;;9.00;61.54;99832.61;1684041;84;20994;-73
2021/11/12 08:09:50;;;;;;;59.42;30.85;;;;;;;9.04;61.19;99839.13;1716681;81;20995;-79
2021/11/12 08:12:05;;;;;;;48.55;28.57;;;;;;;9.00;61.46;99827.69;1728375;81;21449;-75
2021/11/12 08:19:48;;;;;;;59.90;30.85;;;;;;;9.44;61.27;99817.05;1729864;81;20931;-82
2021/11/12 08:22:16;;;;;;;48.65;28.45;;;;;;;9.53;60.82;99819.91;1730683;80;20966;-85
2021/11/12 08:25:04;;;;;;;54.35;29.85;;;;;;;9.69;60.54;99819.07;1711314;81;20947;-77
2021/11/12 08:35:37;;;;;;;53.30;30.12;;;;;;;9.91;59.89;99806.27;1719299;81;20932;-80
2021/11/12 08:43:13;;;;;;;55.12;31.05;;;;;;;10.11;60.58;99800.11;1718437;81;20931;-80
2021/11/12 08:45:39;;;;;;;52.93;31.95;;;;;;;10.43;59.59;99805.45;1708107;81;20880;-74
2021/11/12 08:48:11;;;;;;;58.08;31.57;;;;;;;10.71;58.75;99804.01;1713202;81;20894;-72
2021/11/12 08:50:33;;;;;;;49.35;28.32;;;;;;;10.89;57.76;99805.78;1721195;81;20872;-72
2021/11/12 08:53:05;;;;;;;53.00;31.12;;;;;;;11.05;57.80;99808.38;1707271;82;21126;-70
2021/11/12 08:55:32;;;;;;;52.10;30.00;;;;;;;11.26;56.44;99810.05;1707737;83;21494;-70
2021/11/12 08:57:59;;;;;;;57.13;32.20;;;;;;;11.27;56.28;99808.93;1714957;81;20974;-72
2021/11/12 09:00:26;;;;;;;55.20;32.45;;;;;;;11.22;56.42;99812.62;1725576;82;21077;-72
2021/11/12 09:02:53;;;;;;;51.23;31.00;;;;;;;11.15;56.78;99811.44;1712939;81;20942;-86
2021/11/12 09:05:20;;;;;;;53.63;32.05;;;;;;;11.19;56.37;99817.37;1719688;82;21787;-75
2021/11/12 09:07:50;;;;;;;54.18;31.17;;;;;;;11.24;56.42;99815.87;1725743;81;20891;-88
2021/11/12 09:10:20;;;;;;;53.20;31.20;;;;;;;11.32;56.42;99812.11;1732622;81;21536;-79
2021/11/12 09:12:51;;;;;;;53.00;28.70;;;;;;;11.56;55.86;99812.55;1722716;81;20929;-85
2021/11/12 09:15:31;;;;;;;45.23;28.50;;;;;;;11.73;55.31;99807.13;1664851;84;20958;-88
2021/11/12 09:17:56;;;;;;;50.33;28.73;;;;;;;11.81;54.91;99811.89;1694475;84;21735;-87
2021/11/12 09:20:22;;;;;;;45.78;27.73;;;;;;;11.85;54.48;99806.00;1704159;82;20872;-85
2021/11/12 09:22:49;;;;;;;55.12;31.25;;;;;;;11.94;54.25;99796.97;1693160;82;20975;-80
2021/11/12 09:25:16;;;;;;;55.08;31.23;;;;;;;12.10;54.20;99804.48;1683234;83;20904;-76
2021/11/12 09:27:43;;;;;;;48.00;27.65;;;;;;;12.42;52.84;99796.34;1691612;83;20972;-76
2021/11/12 09:30:13;;;;;;;46.48;26.70;;;;;;;12.65;51.57;99799.77;1731130;82;21101;-78
2021/11/12 09:32:40;;;;;;;44.18;28.30;;;;;;;12.68;51.36;99788.67;1682276;84;21027;-75
2021/11/12 09:35:08;;;;;;;48.95;27.27;;;;;;;12.73;50.59;99789.30;1688495;83;21478;-81
2021/11/12 09:37:34;;;;;;;43.25;25.70;;;;;;;12.71;50.94;99792.16;1687666;84;20915;-87
2021/11/12 09:40:00;;;;;;;45.45;27.27;;;;;;;12.87;50.47;99794.08;1665048;84;20990;-78
2021/11/12 09:42:29;;;;;;;45.17;27.48;;;;;;;13.05;49.46;99795.45;1699483;82;21072;-76
2021/11/12 09:44:58;;;;;;;48.85;27.77;;;;;;;13.12;49.70;99796.58;1697004;84;21054;-79
2021/11/12 09:47:26;;;;;;;43.73;26.05;;;;;;;13.10;49.05;99791.14;1698427;84;20939;-82
2021/11/12 09:49:58;;;;;;;39.42;24.57;;;;;;;13.09;49.11;99799.98;1730159;81;21427;-80
2021/11/12 09:52:28;;;;;;;41.33;25.72;;;;;;;12.91;48.14;99796.99;1727876;82;20943;-76
2021/11/12 09:54:54;;;;;;;38.55;23.45;;;;;;;12.74;49.16;99799.75;1757419;81;21149;-76
2021/11/12 09:57:22;;;;;;;41.02;24.82;;;;;;;12.76;48.58;99800.23;1731586;82;20934;-70
2021/11/12 09:59:51;;;;;;;43.28;25.82;;;;;;;12.43;48.81;99795.21;1697264;84;21011;-80
2021/11/12 10:02:19;;;;;;;39.92;24.40;;;;;;;12.04;50.39;99800.25;1694898;82;20955;-86
2021/11/12 10:04:46;;;;;;;43.08;23.55;;;;;;;11.74;51.48;99805.20;1692218;84;21482;-74
2021/11/12 10:07:16;;;;;;;39.65;25.00;;;;;;;11.39;51.79;99802.30;1690413;82;21702;-73
2021/11/12 10:09:44;;;;;;;43.00;25.48;;;;;;;10.92;52.68;99805.16;1684117;84;21023;-83
2021/11/12 10:12:12;;;;;;;40.33;24.35;;;;;;;10.59;54.09;99803.18;1709927;81;20964;-85
2021/11/12 10:17:13;;;;;;;44.85;24.67;;;;;;;10.23;56.42;99801.25;1724358;81;21474;-80
2021/11/12 10:19:48;;;;;;;42.10;25.43;;;;;;;10.38;57.46;99801.48;1729648;81;21533;-77
2021/11/12 10:22:17;;;;;;;49.77;29.35;;;;;;;10.96;56.58;99797.91;1681067;82;37674;-80
2021/11/12 10:24:43;;;;;;;42.38;25.80;;;;;;;11.85;54.78;99801.88;1693327;81;20947;-77
2021/11/12 10:27:15;;;;;;;44.73;25.27;;;;;;;12.41;53.20;99795.29;1721270;80;20999;-77
2021/11/12 10:29:46;;;;;;;38.45;22.27;;;;;;;12.69;52.76;99795.24;1722740;81;20867;-76
2021/11/12 10:32:22;;;;;;;39.08;21.77;;;;;;;13.05;52.97;99793.50;1722220;81;21218;-78
2021/11/12 10:34:53;;;;;;;42.17;23.20;;;;;;;13.41;51.87;99786.22;1713367;81;21061;-79
2021/11/12 10:37:22;;;;;;;41.58;22.87;;;;;;;13.63;50.79;99789.32;1720717;83;20984;-77
2021/11/12 10:40:02;;;;;;;38.92;23.07;;;;;;;13.86;51.06;99800.32;1725227;81;20944;-81
2021/11/12 10:42:27;;;;;;;38.25;21.93;;;;;;;14.02;49.38;99792.87;1693600;82;20916;-77
2021/11/12 10:45:11;;;;;;;35.40;20.55;;;;;;;13.96;49.47;99792.24;1687181;83;22216;-76
2021/11/12 10:47:53;;;;;;;33.58;20.20;;;;;;;13.97;49.17;99794.44;1712288;80;21041;-83
2021/11/12 10:50:22;;;;;;;35.52;21.35;;;;;;;14.10;48.91;99794.77;1720871;81;20854;-74
2021/11/12 10:52:51;;;;;;;35.88;23.38;;;;;;;14.17;48.84;99790.92;1720860;81;21640;-80
2021/11/12 10:55:22;;;;;;;39.23;23.65;;;;;;;14.28;48.76;99799.06;1715749;79;20959;-85
2021/11/12 10:57:59;;;;;;;34.08;21.77;;;;;;;14.39;48.36;99800.86;1726144;81;21805;-86
2021/11/12 11:00:29;;;;;;;40.40;20.82;;;;;;;14.47;48.81;99801.38;1714873;81;21473;-77
2021/11/12 11:03:06;;;;;;;35.23;20.60;;;;;;;14.75;48.54;99796.14;1717259;81;20914;-80
2021/11/12 11:05:42;;;;;;;30.05;19.62;;;;;;;14.78;48.38;99789.94;1724638;79;21035;-74
2021/11/12 11:08:23;;;;;;;32.20;19.30;;;;;;;14.63;48.59;99798.83;1728589;81;20983;-77
2021/11/12 11:11:02;;;;;;;31.68;19.48;;;;;;;14.30;49.09;99792.63;1705466;82;21227;-71
2021/11/12 11:13:32;;;;;;;31.23;18.48;;;;;;;13.86;50.50;99797.56;1705053;81;21486;-86
2021/11/12 11:16:02;;;;;;;32.53;19.62;;;;;;;13.42;52.02;99798.06;1731960;81;20947;-80
2021/11/12 11:18:43;;;;;;;26.70;17.02;;;;;;;13.02;53.49;99795.53;1717664;81;20946;-72
2021/11/12 11:24:05;;;;;;;29.00;17.10;;;;;;;12.69;55.30;99797.19;1726571;81;21236;-75
2021/11/12 11:26:44;;;;;;;28.55;16.55;;;;;;;12.46;56.06;99795.14;1723740;81;21029;-76
2021/11/12 11:29:21;;;;;;;30.65;18.37;;;;;;;12.12;56.70;99789.02;1711574;81;20935;-88
2021/11/12 11:31:47;;;;;;;33.73;18.55;;;;;;;11.80;57.18;99790.20;1720768;81;20972;-80
2021/11/12 11:34:13;;;;;;;33.48;19.67;;;;;;;11.58;57.80;99784.98;1726058;81;20987;-76
2021/11/12 11:36:44;;;;;;;29.50;17.45;;;;;;;11.47;58.42;99786.41;1712931;81;21114;-77
2021/11/12 11:39:11;;;;;;;31.62;17.23;;;;;;;11.41;59.18;99782.73;1708350;81;20886;-80
2021/11/12 11:41:38;;;;;;;33.65;17.67;;;;;;;11.28;60.06;99782.26;1721907;81;20982;-75
2021/11/12 11:44:05;;;;;;;25.50;15.10;;;;;;;11.25;60.65;99781.77;1704589;81;20912;-75
2021/11/12 11:46:35;;;;;;;29.75;15.05;;;;;;;11.25;61.14;99790.01;1700291;81;20907;-75
2021/11/12 11:49:03;;;;;;;25.65;15.43;;;;;;;11.22;61.22;99789.27;1732329;81;21127;-75
2021/11/12 11:51:36;;;;;;;27.02;17.00;;;;;;;11.27;61.35;99785.57;1700818;83;21501;-76
2021/11/12 11:54:11;;;;;;;29.60;18.25;;;;;;;11.30;61.08;99784.12;1717934;81;28163;-82
2021/11/12 11:56:44;;;;;;;29.85;17.62;;;;;;;11.25;61.20;99785.08;1725160;81;21020;-74
2021/11/12 11:59:32;;;;;;;33.45;18.52;;;;;;;11.27;61.59;99784.76;1723474;81;21541;-75
2021/11/12 12:02:10;;;;;;;30.08;16.32;;;;;;;11.14;61.68;99784.52;1719830;82;21151;-74
2021/11/12 12:04:42;;;;;;;29.95;17.65;;;;;;;10.97;62.63;99785.80;1715536;81;21021;-75
2021/11/12 12:07:18;;;;;;;27.62;15.38;;;;;;;10.87;63.79;99795.66;1719490;81;22195;-74
2021/11/12 12:09:59;;;;;;;29.72;17.02;;;;;;;10.79;64.15;99784.05;1727401;81;20966;-71
2021/11/12 12:12:37;;;;;;;33.15;16.73;;;;;;;10.75;64.60;99785.79;1727255;81;20959;-74
2021/11/12 12:15:12;;;;;;;30.37;16.82;;;;;;;10.80;64.59;99782.36;1726363;81;21187;-76
2021/11/12 12:17:43;;;;;;;31.90;18.15;;;;;;;10.87;64.63;99780.56;1733962;81;21465;-78
2021/11/12 12:20:40;;;;;;;34.92;19.12;;;;;;;10.92;64.59;99774.94;1706090;81;20979;-79
2021/11/12 13:26:00;;;;;;;32.73;17.30;;;;;;;9.85;71.41;99829.97;1707433;81;21217;-70
2021/11/12 13:28:40;;;;;;;31.77;17.95;;;;;;;9.82;71.73;99827.28;1692760;83;21449;-72
2021/11/12 13:31:15;;;;;;;36.08;18.98;;;;;;;9.76;71.59;99835.38;1702790;82;20955;-70
2021/11/12 13:33:51;;;;;;;32.80;17.70;;;;;;;9.64;71.99;99829.58;1682985;84;20993;-74
2021/11/12 13:36:30;;;;;;;33.55;19.40;;;;;;;9.55;72.67;99835.50;1679667;84;20989;-73
2021/11/12 13:39:19;;;;;;;35.33;19.10;;;;;;;9.48;73.48;99836.44;1690873;84;21151;-72
2021/11/12 13:41:51;;;;;;;50.95;24.98;;;;;;;9.42;73.84;99838.45;1696407;84;20962;-76
2021/11/12 13:44:19;;;;;;;96.95;51.73;;;;;;;9.41;73.81;99838.20;1686796;84;20883;-76
2021/11/12 13:47:03;;;;;;;52.33;26.80;;;;;;;9.42;73.88;99834.91;1697766;84;20932;-73
2021/11/12 13:49:40;;;;;;;48.98;26.45;;;;;;;9.40;73.87;99845.35;1699353;84;20957;-73
2021/11/12 13:52:13;;;;;;;50.85;26.45;;;;;;;9.32;74.16;99844.11;1721583;82;21809;-75
2021/11/12 13:54:43;;;;;;;49.75;24.92;;;;;;;9.28;74.70;99846.64;1727348;82;20943;-75
2021/11/12 13:57:13;;;;;;;48.10;25.27;;;;;;;9.28;74.49;99843.90;1720035;83;21490;-77
2021/11/12 13:59:59;;;;;;;66.97;34.33;;;;;;;9.29;74.47;99846.08;1730533;82;20975;-75
2021/11/12 14:02:27;;;;;;;61.60;30.20;;;;;;;9.28;74.94;99846.64;1729435;82;20932;-75
2021/11/12 14:04:53;;;;;;;51.00;25.70;;;;;;;9.27;74.71;99857.89;1728023;82;21078;-75
2021/11/12 14:07:22;;;;;;;63.95;29.87;;;;;;;9.22;75.10;99849.23;1697399;83;21493;-75
2021/11/12 14:10:05;;;;;;;53.52;24.10;;;;;;;9.19;75.26;99848.46;1698080;83;20955;-76
2021/11/12 14:12:31;;;;;;;94.15;29.57;;;;;;;9.11;75.44;99850.52;1683785;83;21023;-72
2021/11/12 14:15:15;;;;;;;81.72;31.37;;;;;;;9.05;76.02;99854.44;1680969;84;20977;-73
2021/11/12 14:17:53;;;;;;;82.02;32.85;;;;;;;9.02;76.29;99852.86;1681978;84;21120;-72
2021/11/12 14:20:21;;;;;;;69.82;30.88;;;;;;;8.97;76.72;99857.85;1721649;81;21414;-72
2021/11/12 14:22:58;;;;;;;73.90;30.25;;;;;;;8.92;76.92;99862.03;1721739;81;21659;-71
2021/11/12 14:25:25;;;;;;;71.67;27.62;;;;;;;8.88;77.06;99862.38;1719602;82;20903;-71
2021/11/12 14:27:54;;;;;;;82.20;32.10;;;;;;;8.85;77.15;99855.56;1722930;81;20963;-71
2021/11/12 14:43:53;;;;;;;104.67;44.35;;;;;;;8.57;78.61;99868.30;1697189;84;21789;-72
2021/11/12 14:47:29;;;;;;;79.32;36.55;;;;;;;8.50;79.04;99880.16;1697199;84;20952;-71
2021/11/12 14:50:19;;;;;;;79.27;34.95;;;;;;;8.44;79.26;99878.61;1670603;84;21077;-71
2021/11/12 14:52:07;;;;;;;80.75;36.48;;;;;;;8.40;79.89;99880.85;1649792;84;20939;-74
2021/11/12 14:54:42;;;;;;;;;;;;;;;8.39;80.25;99890.16;1690054;83;21530;-71
2021/11/12 14:57:55;;;;;;;87.95;40.98;;;;;;;8.36;80.10;99894.30;1690862;84;21165;-73
2021/11/12 14:59:41;;;;;;;92.42;43.30;;;;;;;8.33;80.31;99898.17;1686921;84;20991;-72
2021/11/12 15:02:09;;;;;;;70.35;32.83;;;;;;;8.28;80.88;99906.67;1714819;81;21015;-72
2021/11/12 15:04:36;;;;;;;56.63;26.55;;;;;;;8.26;81.52;99899.31;1698662;81;21043;-72
2021/11/12 15:07:03;;;;;;;44.18;23.80;;;;;;;8.25;80.94;99905.06;1744239;80;20951;-72
2021/11/12 15:09:32;;;;;;;49.80;22.22;;;;;;;8.25;82.56;99904.52;1718948;81;21110;-71
2021/11/12 15:12:01;;;;;;;48.35;24.50;;;;;;;8.25;81.31;99905.06;1693780;84;21028;-73
2021/11/12 15:14:30;;;;;;;56.73;30.35;;;;;;;8.22;81.75;99912.48;1684115;82;20919;-71
2021/11/12 15:16:56;;;;;;;57.35;29.82;;;;;;;8.22;81.63;99917.41;1721221;82;20908;-71
2021/11/12 15:19:26;;;;;;;67.45;32.20;;;;;;;8.21;81.33;99916.33;1719353;81;21046;-69
2021/11/12 15:22:00;;;;;;;79.58;36.53;;;;;;;8.18;81.43;99923.75;1726421;81;21110;-71
2021/11/12 15:27:18;;;;;;;87.65;39.53;;;;;;;8.09;81.83;99932.32;1733912;82;20891;-69
2021/11/12 15:29:48;;;;;;;82.22;37.23;;;;;;;8.03;82.00;99928.86;1729731;81;20933;-71
2021/11/12 15:32:15;;;;;;;98.37;40.67;;;;;;;8.00;82.55;99932.17;1709901;81;21519;-71
2021/11/12 15:34:48;;;;;;;84.42;37.85;;;;;;;7.98;82.65;99939.03;1691535;83;21127;-70
2021/11/12 15:44:56;;;;;;;62.93;27.80;;;;;;;7.86;83.13;99944.88;1692309;83;21463;-72
2021/11/12 15:47:29;;;;;;;70.20;31.37;;;;;;;7.85;83.09;99944.06;1700190;81;21110;-73
2021/11/12 15:50:09;;;;;;;77.95;37.15;;;;;;;7.84;83.60;99955.28;1700747;80;20943;-72
2021/11/12 15:55:15;;;;;;;88.17;39.78;;;;;;;7.80;83.58;99956.41;1715452;81;20955;-72
2021/11/12 16:05:40;;;;;;;95.03;47.88;;;;;;;7.71;84.12;99964.15;1731910;82;20937;-77
2021/11/12 16:13:15;;;;;;;94.30;40.88;;;;;;;7.56;84.53;99965.91;1717848;82;20939;-70
2021/11/12 16:16:34;;;;;;;68.22;30.15;;;;;;;7.51;84.91;99967.89;1700710;82;20963;-72
2021/11/12 16:18:21;;;;;;;56.83;27.40;;;;;;;7.41;85.17;99971.52;1724417;81;21001;-72
2021/11/12 16:21:11;;;;;;;56.10;26.05;;;;;;;7.32;85.77;99972.40;1731874;81;21550;-75
2021/11/12 16:24:19;;;;;;;64.82;30.77;;;;;;;7.23;85.85;99968.90;1702199;82;21018;-71
2021/11/12 16:25:58;;;;;;;53.55;26.02;;;;;;;7.16;85.93;99969.77;1704823;80;21219;-69
2021/11/12 16:28:30;;;;;;;51.77;25.20;;;;;;;7.09;85.72;99970.63;1729466;81;21463;-73
2021/11/12 16:31:01;;;;;;;53.38;25.48;;;;;;;6.97;85.80;99982.43;1728923;81;20995;-74
2021/11/12 16:33:24;;;;;;;85.62;35.58;;;;;;;6.87;86.04;99987.42;1706652;81;20911;-73
2021/11/12 16:35:54;;;;;;;82.35;35.83;;;;;;;6.77;85.84;99992.11;1724476;81;20927;-71
2021/11/12 16:38:28;;;;;;;72.58;34.65;;;;;;;6.65;85.73;99997.89;1701868;82;21499;-76
2021/11/12 16:40:58;;;;;;;73.78;34.43;;;;;;;6.53;85.30;99997.38;1692524;81;20918;-74
2021/11/12 16:43:29;;;;;;;79.90;33.83;;;;;;;6.38;84.96;99998.24;1692415;82;21522;-75